الصفحة الرئيسية
METAR-TAF:

METAR-TAF

مطار :

Fairbanks, ألاسكا, الولايات المتحدة

دائرة عرض: 64-48-14N, خط طول: 147-52-34W, ارتفاع: 132 متر

مراقبة الطقس الحالي

تاريخ ووقت الإصدار 18 دقيقة قبل الساعة 04:53UTC
رياح هادئة
درجة الحرارة -12°درجة مئوية
الرطوبة 78%
ضغط 1006 hPa
الرؤية: 16.1 كم
غيوم مفككة على ارتفاع 9000 قدم
غيوم مفككة على ارتفاع 11000 قدم

METAR: PAFA 240453Z 00000KT 10SM BKN090 BKN110 M12/M15 A2970 RMK AO2 SLP070 T11221150 PNO

زمن: 20:11 (05:11 UTC)

توقعات

تاريخ ووقت الإصدار 5ساعات و 50 دقيقة قبل الساعة 23:21UTC
التوقعات صالحة من24 الساعة 00 UTC إلى 25 الساعة 06 UTC
ريح 6 عقدة من الشمال الشرقي
الرؤية: 10 كم
غيوم متفرقة على ارتفاع 12000 قدم
غيوم مفككة على ارتفاع 25000 قدم
من 24 الساعة 0900 UTC
ريح 3 عقدةمن اتجاهات متغيرة
الرؤية: 10 كم
غيوم متفرقة على ارتفاع 25000 قدم
من 24 الساعة 2100 UTC
ريح 5 عقدة من الشرق
الرؤية: 10 كم
غيوم مفككة على ارتفاع 12000 قدم

TAF: PAFA 232321Z 2400/2506 04006KT P6SM SCT120 BKN250 FM240900 VRB03KT P6SM SCT250 FM242100 08005KT P6SM BKN120

أرصاد الطقس والتوقعات من أكثر من 4000 مطار (تقارير الطقس للمطار METAR والتنبؤ بالطقس بالمطارTAF).

المحطات المتاحة هي النقط الصفراء والحمراء على الخريطة.

حرك المؤشر فوق النقطة لمعرفة اسم المحطة.

ثم انقر لمعرفة أرصاد وتوقعات الطقس.

لتغيير الخارطة: اضغط على الأزرار الخضراء مع رمز الصليب الأسود للتكبير. على الزر الأخضر مع شرطة للتصغير، أو على الأسهم الخضراء للخرائط المجاورة.


METAR-TAF: